Time;durP1;ratioP1;P1;durP2;ratioP2;P2;SDS_P1;SDS_P2;PMS_P1;PMS_P2;Temp;Humidity;BMP_temperature;BMP_pressure;BME280_temperature;BME280_humidity;BME280_pressure;Samples;Min_cycle;Max_cycle;Signal;HPM_P1;HPM_P2
2022/06/23 00:02:27;;;;;;;0.47;0.47;;;20.40;99.90;;;;;;5041936;28;20185;-84
2022/06/23 00:04:59;;;;;;;0.40;0.40;;;20.30;99.90;;;;;;5038444;28;20189;-83
2022/06/23 00:07:33;;;;;;;0.63;0.63;;;20.30;99.90;;;;;;5042581;28;20208;-83
2022/06/23 00:10:11;;;;;;;1.23;1.13;;;20.50;99.90;;;;;;5037504;28;20189;-83
2022/06/23 00:12:40;;;;;;;2.20;0.93;;;20.70;99.90;;;;;;5043246;28;20173;-83
2022/06/23 00:15:06;;;;;;;1.87;1.77;;;20.90;99.90;;;;;;5035433;28;20189;-84
2022/06/23 00:17:36;;;;;;;0.60;0.60;;;21.10;99.90;;;;;;5037348;28;20216;-84
2022/06/23 00:20:32;;;;;;;0.30;0.30;;;21.10;99.90;;;;;;5057526;28;20188;-83
2022/06/23 00:23:11;;;;;;;1.50;1.40;;;21.10;99.90;;;;;;5030003;28;20522;-84
2022/06/23 00:25:59;;;;;;;5.33;0.87;;;20.80;99.90;;;;;;5040809;28;20232;-83
2022/06/23 00:28:34;;;;;;;0.50;0.50;;;20.40;99.90;;;;;;5039482;28;20217;-83
2022/06/23 00:31:03;;;;;;;2.23;0.83;;;20.20;99.90;;;;;;5043336;28;20247;-83
2022/06/23 00:33:38;;;;;;;2.97;1.07;;;20.10;99.90;;;;;;5043481;28;20189;-83
2022/06/23 00:36:26;;;;;;;1.23;1.10;;;20.00;99.90;;;;;;5038450;28;20191;-83
2022/06/23 00:38:52;;;;;;;1.40;0.70;;;20.00;99.90;;;;;;5042065;28;20285;-83
2022/06/23 00:41:23;;;;;;;0.40;0.40;;;19.90;99.90;;;;;;5040002;28;20376;-83
2022/06/23 00:43:50;;;;;;;0.97;0.87;;;19.90;99.90;;;;;;5041813;28;20975;-84
2022/06/23 00:46:23;;;;;;;1.67;1.47;;;20.00;99.90;;;;;;5043196;28;20293;-84
2022/06/23 00:49:01;;;;;;;2.37;1.20;;;19.90;99.90;;;;;;5043438;28;20197;-83
2022/06/23 00:51:38;;;;;;;0.97;0.70;;;20.10;99.90;;;;;;5040766;28;20302;-83
2022/06/23 00:54:30;;;;;;;0.60;0.60;;;20.20;99.90;;;;;;5044943;28;20181;-83
2022/06/23 00:57:14;;;;;;;0.50;0.50;;;20.20;99.90;;;;;;5040859;28;20279;-83
2022/06/23 00:59:48;;;;;;;1.60;1.10;;;20.40;99.90;;;;;;5045936;28;20185;-83
2022/06/23 01:02:23;;;;;;;1.07;0.87;;;20.60;99.90;;;;;;5047776;28;20173;-83
2022/06/23 01:05:01;;;;;;;1.43;1.13;;;20.60;99.90;;;;;;5045370;28;20733;-83
2022/06/23 01:07:51;;;;;;;0.80;0.80;;;20.40;99.90;;;;;;5044093;28;20205;-83
2022/06/23 01:10:25;;;;;;;2.17;1.00;;;20.10;99.90;;;;;;5044409;28;20182;-83
2022/06/23 01:13:20;;;;;;;4.23;1.20;;;20.00;99.90;;;;;;5038655;28;20561;-83
2022/06/23 01:15:52;;;;;;;0.57;0.57;;;19.90;99.90;;;;;;5045433;28;20228;-83
2022/06/23 01:18:23;;;;;;;1.17;1.17;;;20.00;99.90;;;;;;5046426;28;20213;-84
2022/06/23 01:20:56;;;;;;;0.60;0.60;;;19.90;99.90;;;;;;5044004;28;20174;-84
2022/06/23 01:23:33;;;;;;;1.03;0.77;;;19.80;99.90;;;;;;5039545;28;20188;-83
2022/06/23 01:26:26;;;;;;;1.40;0.67;;;19.70;99.90;;;;;;5043049;28;20177;-83
2022/06/23 01:29:04;;;;;;;0.87;0.87;;;19.70;99.90;;;;;;5042704;28;20244;-83
2022/06/23 01:31:42;;;;;;;1.37;1.03;;;19.70;99.90;;;;;;5046187;28;20706;-83
2022/06/23 01:34:30;;;;;;;1.43;1.33;;;19.60;99.90;;;;;;5044182;28;20181;-83
2022/06/23 01:37:31;;;;;;;3.27;1.10;;;19.60;99.90;;;;;;5044483;28;20218;-83
2022/06/23 01:40:17;;;;;;;2.87;1.17;;;19.50;99.90;;;;;;5053299;28;20668;-83
2022/06/23 01:42:54;;;;;;;0.80;0.80;;;19.40;99.90;;;;;;5042513;28;20174;-83
2022/06/23 01:45:26;;;;;;;0.77;0.77;;;19.30;99.90;;;;;;5043973;28;20217;-83
2022/06/23 01:47:52;;;;;;;1.10;1.00;;;19.30;99.90;;;;;;5044012;28;20210;-84
2022/06/23 01:50:33;;;;;;;4.13;1.37;;;19.30;99.90;;;;;;5043054;28;20284;-83
2022/06/23 01:53:26;;;;;;;1.50;0.97;;;19.40;99.90;;;;;;5046449;28;20195;-83
2022/06/23 01:56:08;;;;;;;0.70;0.70;;;19.50;99.90;;;;;;5046253;28;20651;-83
2022/06/23 01:58:57;;;;;;;1.97;1.07;;;19.50;99.90;;;;;;5045592;28;20262;-83
2022/06/23 02:01:43;;;;;;;0.63;0.63;;;19.50;99.90;;;;;;5045068;28;20221;-83
2022/06/23 02:04:24;;;;;;;1.43;1.00;;;19.60;99.90;;;;;;5043704;28;20213;-83
2022/06/23 02:07:16;;;;;;;0.67;0.67;;;19.70;99.90;;;;;;5042801;28;20269;-83
2022/06/23 02:09:51;;;;;;;1.30;0.87;;;19.70;99.90;;;;;;5044208;28;20186;-83
2022/06/23 02:12:21;;;;;;;1.17;1.17;;;19.70;99.90;;;;;;5044741;28;20185;-83
2022/06/23 02:15:06;;;;;;;1.03;0.87;;;19.70;99.90;;;;;;5042742;28;20636;-83
2022/06/23 02:17:44;;;;;;;0.77;0.67;;;19.80;99.90;;;;;;5044013;28;20247;-83
2022/06/23 02:20:24;;;;;;;0.63;0.63;;;19.80;99.90;;;;;;5046001;28;20257;-83
2022/06/23 02:23:24;;;;;;;1.00;0.93;;;19.60;99.90;;;;;;5044506;28;20186;-84
2022/06/23 02:26:06;;;;;;;0.60;0.60;;;19.60;99.90;;;;;;5039830;28;20205;-83
2022/06/23 02:28:45;;;;;;;0.70;0.70;;;19.70;99.90;;;;;;5044529;28;20706;-83
2022/06/23 02:31:24;;;;;;;0.50;0.50;;;19.60;99.90;;;;;;5041462;28;20488;-83
2022/06/23 02:34:25;;;;;;;0.50;0.50;;;19.40;99.90;;;;;;5042961;28;20216;-83
2022/06/23 02:37:06;;;;;;;0.90;0.90;;;19.20;99.90;;;;;;5033216;28;20228;-83
2022/06/23 02:39:47;;;;;;;2.93;1.00;;;19.20;99.90;;;;;;5042074;28;20191;-83
2022/06/23 02:42:34;;;;;;;0.80;0.80;;;19.00;99.90;;;;;;5043960;28;20185;-83
2022/06/23 02:45:12;;;;;;;0.47;0.47;;;18.90;99.90;;;;;;5043713;28;20654;-83
2022/06/23 02:47:47;;;;;;;0.47;0.47;;;19.00;99.90;;;;;;5045160;28;20210;-83
2022/06/23 02:50:58;;;;;;;2.97;0.70;;;19.20;99.90;;;;;;5039778;28;20180;-83
2022/06/23 02:53:57;;;;;;;0.80;0.70;;;19.30;99.90;;;;;;5042870;28;20177;-83
2022/06/23 02:56:43;;;;;;;0.70;0.70;;;19.10;99.90;;;;;;5042701;28;20639;-83
2022/06/23 02:59:39;;;;;;;1.33;1.03;;;18.90;99.90;;;;;;5046694;28;20181;-81
2022/06/23 03:02:43;;;;;;;0.80;0.80;;;18.80;99.90;;;;;;5040737;28;20187;-81
2022/06/23 03:05:22;;;;;;;1.17;0.80;;;18.80;99.90;;;;;;5043960;28;20212;-82
2022/06/23 03:07:57;;;;;;;0.60;0.60;;;18.70;99.90;;;;;;5043926;28;20220;-81
2022/06/23 03:10:46;;;;;;;0.47;0.47;;;18.80;99.90;;;;;;5034748;28;20188;-82
2022/06/23 03:13:47;;;;;;;0.47;0.47;;;19.00;99.90;;;;;;5041708;28;20232;-82
2022/06/23 03:16:31;;;;;;;0.93;0.60;;;19.10;99.90;;;;;;5043001;28;20194;-81
2022/06/23 03:18:59;;;;;;;0.67;0.67;;;19.10;99.90;;;;;;5043394;28;20220;-82
2022/06/23 03:21:50;;;;;;;0.50;0.50;;;19.00;99.90;;;;;;5038779;28;20187;-82
2022/06/23 03:24:32;;;;;;;0.57;0.57;;;18.90;99.90;;;;;;5038967;28;20666;-82
2022/06/23 03:27:04;;;;;;;0.60;0.60;;;19.00;99.90;;;;;;5037897;28;20202;-82
2022/06/23 03:30:13;;;;;;;0.20;0.20;;;19.10;99.90;;;;;;5041292;28;20574;-83
2022/06/23 03:32:57;;;;;;;0.83;0.57;;;19.20;99.90;;;;;;5041469;28;20201;-83
2022/06/23 03:35:28;;;;;;;0.80;0.60;;;19.30;99.90;;;;;;5037101;28;20185;-81
2022/06/23 03:38:05;;;;;;;1.03;0.60;;;19.40;99.90;;;;;;5042117;28;20249;-83
2022/06/23 03:43:39;;;;;;;0.80;0.80;;;20.20;99.90;;;;;;5043523;28;20177;-81
2022/06/23 03:46:19;;;;;;;1.23;0.70;;;20.90;99.90;;;;;;5044966;28;20678;-83
2022/06/23 03:49:01;;;;;;;0.50;0.50;;;21.40;99.90;;;;;;5041718;28;20201;-82
2022/06/23 03:51:34;;;;;;;2.30;0.50;;;21.90;99.90;;;;;;5042359;28;20178;-81
2022/06/23 03:54:04;;;;;;;1.93;0.97;;;22.30;99.90;;;;;;5041646;28;20277;-83
2022/06/23 03:56:44;;;;;;;0.53;0.53;;;22.70;99.90;;;;;;5039368;28;20223;-84
2022/06/23 03:59:28;;;;;;;0.57;0.57;;;22.90;99.90;;;;;;5040798;28;21184;-85
2022/06/23 04:02:17;;;;;;;0.63;0.63;;;23.30;99.90;;;;;;5039434;28;20182;-84
2022/06/23 04:04:46;;;;;;;1.27;0.70;;;23.60;99.90;;;;;;5039670;28;20300;-84
2022/06/23 04:07:30;;;;;;;1.43;0.70;;;23.10;99.90;;;;;;5042572;28;20284;-84
2022/06/23 04:10:11;;;;;;;1.60;1.07;;;22.00;99.90;;;;;;5036592;28;20201;-84
2022/06/23 04:12:42;;;;;;;0.87;0.87;;;21.60;99.90;;;;;;5043393;28;20995;-83
2022/06/23 04:15:13;;;;;;;2.37;2.17;;;21.50;99.90;;;;;;5040985;28;20190;-84
2022/06/23 04:17:43;;;;;;;2.10;1.60;;;21.20;99.90;;;;;;5041407;28;20243;-86
2022/06/23 04:20:18;;;;;;;0.60;0.60;;;21.30;99.90;;;;;;5042945;28;20221;-84
2022/06/23 04:22:58;;;;;;;1.03;1.03;;;21.60;99.90;;;;;;5041877;28;20189;-84
2022/06/23 04:25:56;;;;;;;5.57;1.73;;;21.60;99.90;;;;;;5042473;28;20268;-84
2022/06/23 04:28:35;;;;;;;1.10;1.10;;;21.70;99.90;;;;;;5034368;28;20236;-84
2022/06/23 04:31:06;;;;;;;0.97;0.90;;;21.50;99.90;;;;;;5045252;28;20191;-83
2022/06/23 04:33:37;;;;;;;0.93;0.90;;;21.50;99.90;;;;;;5043404;28;20178;-85
2022/06/23 04:36:03;;;;;;;0.77;0.77;;;21.20;99.90;;;;;;5045729;28;20242;-86
2022/06/23 04:38:41;;;;;;;0.93;0.83;;;20.90;99.90;;;;;;5045697;28;20221;-84
2022/06/23 04:41:16;;;;;;;1.47;1.37;;;20.90;99.90;;;;;;5063002;28;20220;-84
2022/06/23 04:43:45;;;;;;;0.80;0.57;;;20.90;99.90;;;;;;5046158;28;20181;-84
2022/06/23 04:46:19;;;;;;;2.03;0.53;;;20.90;99.90;;;;;;5046569;28;20194;-84
2022/06/23 04:49:00;;;;;;;0.40;0.40;;;21.00;99.90;;;;;;5050394;28;20237;-83
2022/06/23 04:51:31;;;;;;;2.43;1.10;;;21.00;99.90;;;;;;5053226;28;20185;-83
2022/06/23 04:54:09;;;;;;;1.27;1.20;;;20.90;99.90;;;;;;5049190;28;20212;-83
2022/06/23 04:56:42;;;;;;;0.90;0.90;;;20.80;99.90;;;;;;5049304;28;20200;-83
2022/06/23 04:59:23;;;;;;;2.37;2.20;;;20.70;99.90;;;;;;5044348;28;20200;-84
2022/06/23 05:01:51;;;;;;;0.90;0.90;;;20.80;99.90;;;;;;5047113;28;20196;-86
2022/06/23 05:04:25;;;;;;;0.97;0.97;;;20.70;99.90;;;;;;5046528;28;20186;-83
2022/06/23 05:06:56;;;;;;;1.13;0.77;;;20.70;99.90;;;;;;5043596;28;20196;-83
2022/06/23 05:09:24;;;;;;;1.57;1.20;;;20.50;99.90;;;;;;5046266;28;20197;-83
2022/06/23 05:12:05;;;;;;;2.30;1.50;;;20.50;99.90;;;;;;5042520;28;20189;-84
2022/06/23 05:14:45;;;;;;;4.13;1.97;;;20.80;99.90;;;;;;5046792;28;20224;-83
2022/06/23 05:17:20;;;;;;;2.67;1.27;;;21.00;99.90;;;;;;5046549;28;20220;-83
2022/06/23 05:19:47;;;;;;;1.73;1.03;;;21.10;99.90;;;;;;5042856;28;20272;-83
2022/06/23 05:22:30;;;;;;;0.83;0.83;;;21.50;99.90;;;;;;5043159;28;20204;-83
2022/06/23 05:24:58;;;;;;;0.50;0.50;;;21.80;99.90;;;;;;5042088;28;20182;-82
2022/06/23 05:27:28;;;;;;;0.87;0.80;;;22.20;99.90;;;;;;5039454;28;20287;-82
2022/06/23 05:30:04;;;;;;;1.07;0.60;;;22.40;99.90;;;;;;5041480;28;20679;-82
2022/06/23 05:32:41;;;;;;;1.43;1.33;;;22.60;99.90;;;;;;5041252;28;20200;-83
2022/06/23 05:35:24;;;;;;;2.40;1.63;;;22.30;99.90;;;;;;5044111;28;20564;-83
2022/06/23 05:38:16;;;;;;;6.17;3.23;;;22.00;99.90;;;;;;5039753;28;20221;-84
2022/06/23 05:41:02;;;;;;;1.23;1.13;;;22.10;99.90;;;;;;5043885;28;20174;-84
2022/06/23 05:43:30;;;;;;;1.20;0.90;;;22.40;99.90;;;;;;5045354;28;20182;-84
2022/06/23 05:45:59;;;;;;;1.10;1.03;;;22.80;99.90;;;;;;5044895;28;20186;-81
2022/06/23 05:48:37;;;;;;;0.93;0.93;;;23.00;99.90;;;;;;5044475;28;20209;-84
2022/06/23 05:51:13;;;;;;;4.13;1.53;;;23.10;99.90;;;;;;5044105;28;20201;-83
2022/06/23 05:54:19;;;;;;;1.37;1.23;;;22.70;99.90;;;;;;5044464;28;20186;-83
2022/06/23 05:56:53;;;;;;;2.30;1.00;;;22.70;99.90;;;;;;5045096;28;20283;-82
2022/06/23 05:59:31;;;;;;;1.13;1.03;;;23.10;99.90;;;;;;5044787;28;20659;-82
2022/06/23 06:02:11;;;;;;;1.13;1.07;;;23.10;99.90;;;;;;5045342;28;20196;-82
2022/06/23 06:04:55;;;;;;;5.20;1.53;;;23.40;99.90;;;;;;5042343;28;20251;-81
2022/06/23 06:07:26;;;;;;;2.83;1.90;;;23.20;99.90;;;;;;5044560;28;20792;-84
2022/06/23 06:09:54;;;;;;;3.87;2.63;;;23.10;99.90;;;;;;5043083;28;20169;-84
2022/06/23 06:12:31;;;;;;;1.80;1.30;;;22.90;99.90;;;;;;5044086;28;20182;-82
2022/06/23 06:15:13;;;;;;;2.03;1.73;;;22.70;99.90;;;;;;5042207;28;20186;-81
2022/06/23 06:17:40;;;;;;;3.90;3.60;;;23.00;99.90;;;;;;5042573;28;20210;-82
2022/06/23 06:20:08;;;;;;;3.23;1.50;;;22.60;99.90;;;;;;5039314;28;20185;-82
2022/06/23 06:22:55;;;;;;;1.03;1.03;;;23.00;99.90;;;;;;5041909;28;20282;-83
2022/06/23 06:25:30;;;;;;;1.90;1.37;;;23.40;99.90;;;;;;5045155;28;20174;-81
2022/06/23 06:28:01;;;;;;;1.53;1.23;;;23.50;99.90;;;;;;5043332;28;20205;-82
2022/06/23 06:30:32;;;;;;;2.53;1.87;;;23.70;99.90;;;;;;5045141;28;20217;-82
2022/06/23 06:32:58;;;;;;;2.33;2.23;;;23.70;99.90;;;;;;5039264;28;20655;-83
2022/06/23 06:35:53;;;;;;;4.30;2.97;;;23.50;99.90;;;;;;5043867;28;20190;-83
2022/06/23 06:38:20;;;;;;;2.20;1.50;;;23.10;99.90;;;;;;5043570;28;20233;-82
2022/06/23 06:40:50;;;;;;;1.10;1.03;;;23.30;99.90;;;;;;5041990;28;20533;-81
2022/06/23 06:43:20;;;;;;;4.10;2.03;;;23.80;99.90;;;;;;5042712;28;20182;-82
2022/06/23 06:45:46;;;;;;;2.47;2.00;;;23.70;99.90;;;;;;5043924;28;20182;-81
2022/06/23 06:48:19;;;;;;;4.73;1.27;;;23.50;99.90;;;;;;5043760;28;20214;-82
2022/06/23 06:50:47;;;;;;;2.10;1.70;;;23.70;99.90;;;;;;5041600;28;20599;-81
2022/06/23 06:53:37;;;;;;;3.50;2.40;;;24.00;99.90;;;;;;5043047;28;20225;-84
2022/06/23 06:56:24;;;;;;;3.57;1.20;;;23.50;99.90;;;;;;5040648;28;20178;-82
2022/06/23 06:58:58;;;;;;;1.03;0.83;;;23.50;99.90;;;;;;5043263;28;20760;-81
2022/06/23 07:01:25;;;;;;;1.53;1.23;;;24.10;99.90;;;;;;5042661;28;20177;-83
2022/06/23 07:03:54;;;;;;;2.73;2.30;;;24.30;99.90;;;;;;5038509;28;20186;-82
2022/06/23 07:06:45;;;;;;;1.23;1.10;;;24.50;99.90;;;;;;5042539;28;20243;-81
2022/06/23 07:09:34;;;;;;;1.33;1.00;;;23.70;99.90;;;;;;5042429;28;20221;-81
2022/06/23 07:12:24;;;;;;;2.53;2.33;;;24.30;99.90;;;;;;5043601;28;20264;-83
2022/06/23 07:15:04;;;;;;;1.30;1.03;;;24.80;99.90;;;;;;5059168;28;20766;-82
2022/06/23 07:17:37;;;;;;;1.23;1.13;;;24.70;99.90;;;;;;5033559;28;20725;-83
2022/06/23 07:20:28;;;;;;;2.07;1.77;;;25.00;99.90;;;;;;5040893;28;20654;-84
2022/06/23 07:22:54;;;;;;;1.30;0.83;;;25.20;99.90;;;;;;5029551;28;20185;-84
2022/06/23 07:25:26;;;;;;;1.50;1.27;;;25.50;99.90;;;;;;5036428;28;20182;-82
2022/06/23 07:27:51;;;;;;;1.53;0.80;;;25.80;99.90;;;;;;5041120;28;20296;-82
2022/06/23 07:30:33;;;;;;;0.67;0.67;;;25.50;99.90;;;;;;5038969;28;20209;-83
2022/06/23 07:33:05;;;;;;;1.10;0.97;;;25.70;99.90;;;;;;5040757;28;20190;-82
2022/06/23 07:35:50;;;;;;;3.17;0.80;;;25.80;99.90;;;;;;5042919;28;20529;-82
2022/06/23 07:38:56;;;;;;;2.83;2.47;;;25.30;99.90;;;;;;5042301;28;20263;-83
2022/06/23 07:41:48;;;;;;;5.93;1.73;;;24.30;99.90;;;;;;5027479;28;20194;-82
2022/06/23 07:44:26;;;;;;;3.27;2.67;;;24.40;99.90;;;;;;5039966;28;20178;-84
2022/06/23 07:46:52;;;;;;;1.03;0.97;;;24.40;99.90;;;;;;5041858;28;20205;-82
2022/06/23 07:49:17;;;;;;;2.20;1.30;;;25.20;99.90;;;;;;5039101;28;20602;-81
2022/06/23 07:51:44;;;;;;;2.37;1.40;;;25.80;99.90;;;;;;5043600;28;20185;-82
2022/06/23 07:54:16;;;;;;;1.33;1.30;;;25.10;99.90;;;;;;5040755;28;20193;-82
2022/06/23 07:56:42;;;;;;;4.40;2.60;;;25.80;99.90;;;;;;5040332;28;20650;-84
2022/06/23 07:59:11;;;;;;;1.27;1.17;;;25.40;99.90;;;;;;5042528;28;20186;-82
2022/06/23 08:01:54;;;;;;;1.27;1.10;;;25.90;99.90;;;;;;5040683;28;20639;-84
2022/06/23 08:04:44;;;;;;;4.33;1.87;;;26.20;99.90;;;;;;5041709;28;20924;-81
2022/06/23 08:07:12;;;;;;;1.00;1.00;;;25.60;99.90;;;;;;5041239;28;20370;-82
2022/06/23 08:09:48;;;;;;;3.00;2.17;;;25.90;99.90;;;;;;5041407;28;20280;-83
2022/06/23 08:18:34;;;;;;;3.97;1.60;;;25.90;99.90;;;;;;5040565;28;20283;-82
2022/06/23 08:21:15;;;;;;;7.63;1.60;;;26.20;99.90;;;;;;5040061;28;20318;-82
2022/06/23 08:23:48;;;;;;;1.90;1.33;;;25.60;99.90;;;;;;5041202;28;20193;-82
2022/06/23 08:26:16;;;;;;;1.30;1.13;;;26.00;99.90;;;;;;5039658;28;20181;-82
2022/06/23 08:28:44;;;;;;;1.70;1.60;;;26.50;99.90;;;;;;5043031;28;21248;-84
2022/06/23 08:31:10;;;;;;;1.00;0.93;;;26.70;99.90;;;;;;5044061;28;20260;-83
2022/06/23 08:33:35;;;;;;;1.37;1.13;;;27.30;99.90;;;;;;5041036;28;20697;-83
2022/06/23 08:36:09;;;;;;;1.40;1.30;;;27.80;99.90;;;;;;5038997;28;20187;-84
2022/06/23 08:38:43;;;;;;;1.37;1.00;;;27.90;99.90;;;;;;5043327;28;20245;-83
2022/06/23 08:41:34;;;;;;;1.30;1.20;;;28.20;99.90;;;;;;5060548;28;20182;-83
2022/06/23 08:44:13;;;;;;;2.13;1.57;;;27.90;99.90;;;;;;5041941;28;20277;-82
2022/06/23 08:46:53;;;;;;;2.17;1.97;;;27.60;99.90;;;;;;5042558;28;20177;-82
2022/06/23 08:49:27;;;;;;;2.53;1.77;;;27.90;99.90;;;;;;5042133;28;20178;-82
2022/06/23 08:52:17;;;;;;;3.07;1.40;;;27.50;99.90;;;;;;5043735;28;20177;-85
2022/06/23 08:54:52;;;;;;;1.42;1.08;;;28.00;99.90;;;;;;5042998;28;20265;-82
2022/06/23 08:57:47;;;;;;;3.57;2.13;;;28.40;99.90;;;;;;5044577;28;20234;-82
2022/06/23 09:00:24;;;;;;;0.97;0.97;;;28.60;99.90;;;;;;5044293;28;20194;-82
2022/06/23 09:03:11;;;;;;;1.20;1.13;;;29.00;99.90;;;;;;5040564;28;20189;-82
2022/06/23 09:05:36;;;;;;;2.17;1.75;;;29.10;99.90;;;;;;5042963;28;20506;-82
2022/06/23 09:08:29;;;;;;;1.55;1.15;;;29.10;99.90;;;;;;5044950;28;20213;-82
2022/06/23 09:11:04;;;;;;;0.93;0.93;;;28.70;99.90;;;;;;5043635;28;20713;-82
2022/06/23 09:13:58;;;;;;;1.85;1.10;;;28.40;99.90;;;;;;5046061;28;20264;-82
2022/06/23 09:16:41;;;;;;;1.40;1.30;;;28.90;99.90;;;;;;5046929;28;20239;-82
2022/06/23 09:19:17;;;;;;;1.25;1.13;;;29.10;99.90;;;;;;5046657;28;20249;-85
2022/06/23 09:21:49;;;;;;;1.38;1.27;;;29.30;99.90;;;;;;5048679;28;20182;-82
2022/06/23 09:24:36;;;;;;;0.90;0.90;;;29.50;99.90;;;;;;5046845;28;21349;-82
2022/06/23 09:27:20;;;;;;;1.08;0.98;;;29.70;99.90;;;;;;5046768;28;20205;-81
2022/06/23 09:30:24;;;;;;;1.10;1.10;;;29.40;99.90;;;;;;5046119;28;21025;-82
2022/06/23 09:32:49;;;;;;;1.15;1.15;;;29.20;99.90;;;;;;5046510;28;20268;-82
2022/06/23 09:35:45;;;;;;;1.27;1.17;;;29.50;99.90;;;;;;5042763;28;20284;-84
2022/06/23 09:38:33;;;;;;;1.40;1.30;;;29.70;99.90;;;;;;5041807;28;20222;-84
2022/06/23 09:41:10;;;;;;;1.85;1.10;;;29.90;99.90;;;;;;5044424;28;20166;-84
2022/06/23 09:43:55;;;;;;;0.90;0.90;;;30.20;99.90;;;;;;5046104;28;20192;-83
2022/06/23 09:46:42;;;;;;;1.27;1.17;;;30.30;99.90;;;;;;5046924;28;20239;-84
2022/06/23 09:49:44;;;;;;;2.08;1.85;;;30.10;99.90;;;;;;5047266;28;20188;-84
2022/06/23 09:52:36;;;;;;;1.25;1.13;;;30.40;99.90;;;;;;5045367;28;20177;-84
2022/06/23 09:55:28;;;;;;;2.97;1.23;;;30.80;99.90;;;;;;5042601;28;20581;-84
2022/06/23 09:58:12;;;;;;;1.23;1.13;;;30.90;99.90;;;;;;5045014;28;20220;-84
2022/06/23 10:00:52;;;;;;;1.35;1.20;;;31.10;99.90;;;;;;5048106;28;20196;-84
2022/06/23 10:03:31;;;;;;;3.42;1.67;;;31.20;99.90;;;;;;5042547;28;20201;-84
2022/06/23 10:06:32;;;;;;;0.70;0.70;;;31.10;99.90;;;;;;5041883;28;20677;-84
2022/06/23 10:09:03;;;;;;;1.30;1.15;;;31.20;99.90;;;;;;5045696;28;20208;-85
2022/06/23 10:11:50;;;;;;;2.15;1.70;;;31.10;99.90;;;;;;5044829;28;20646;-84
2022/06/23 10:14:27;;;;;;;2.03;1.42;;;31.30;99.90;;;;;;5046360;28;20180;-85
2022/06/23 10:17:23;;;;;;;1.40;1.30;;;31.50;99.90;;;;;;5043180;28;20718;-84
2022/06/23 10:20:03;;;;;;;1.38;1.27;;;31.40;99.90;;;;;;5044711;28;20182;-85
2022/06/23 10:22:49;;;;;;;1.13;1.00;;;31.50;99.90;;;;;;5044634;28;20181;-85
2022/06/23 10:25:36;;;;;;;1.85;1.75;;;31.50;99.90;;;;;;5044981;28;20189;-85
2022/06/23 10:28:04;;;;;;;1.50;1.30;;;31.40;99.90;;;;;;5045216;28;20216;-84
2022/06/23 10:30:47;;;;;;;1.90;1.60;;;31.10;99.90;;;;;;5043598;28;20204;-85
2022/06/23 10:33:48;;;;;;;2.00;1.90;;;31.40;99.90;;;;;;5044059;28;20197;-85
2022/06/23 10:36:57;;;;;;;1.15;1.00;;;31.30;99.90;;;;;;5059774;28;20239;-84
2022/06/23 10:39:31;;;;;;;1.40;1.30;;;31.60;99.90;;;;;;5043236;28;20193;-85
2022/06/23 10:42:25;;;;;;;2.58;2.38;;;31.60;99.90;;;;;;5038636;28;20248;-85
2022/06/23 10:45:07;;;;;;;2.80;1.85;;;31.60;99.90;;;;;;5053459;27;20600;-85
2022/06/23 10:47:48;;;;;;;0.98;0.98;;;31.90;99.90;;;;;;5073870;28;20344;-84
2022/06/23 10:50:31;;;;;;;0.90;0.90;;;31.30;99.90;;;;;;5053117;28;20181;-85
2022/06/23 10:53:37;;;;;;;1.40;1.33;;;31.80;99.90;;;;;;5072287;28;20196;-84
2022/06/23 10:56:12;;;;;;;0.68;0.68;;;31.40;99.90;;;;;;5059510;28;20192;-84
2022/06/23 10:58:56;;;;;;;1.30;1.08;;;31.80;99.90;;;;;;5051490;28;20205;-84
2022/06/23 11:01:43;;;;;;;1.35;1.25;;;32.10;99.90;;;;;;5058274;28;20196;-83
2022/06/23 11:04:28;;;;;;;4.60;2.17;;;32.30;99.90;;;;;;5073747;28;20209;-84
2022/06/23 11:07:10;;;;;;;1.73;1.33;;;32.20;99.90;;;;;;5050805;28;20181;-84
2022/06/23 11:09:55;;;;;;;1.25;1.17;;;32.30;99.90;;;;;;5049296;28;20189;-84
2022/06/23 11:13:05;;;;;;;1.42;1.33;;;31.90;99.90;;;;;;5056777;28;20623;-84
2022/06/23 11:15:52;;;;;;;2.47;2.28;;;32.00;99.90;;;;;;5051231;28;20247;-84
2022/06/23 11:18:23;;;;;;;1.17;1.17;;;32.30;99.90;;;;;;5050681;28;20206;-82
2022/06/23 11:21:31;;;;;;;1.58;1.30;;;32.70;99.90;;;;;;5049679;28;20281;-83
2022/06/23 11:24:04;;;;;;;1.27;1.17;;;32.80;99.90;;;;;;5048816;28;20319;-83
2022/06/23 11:26:45;;;;;;;1.67;1.45;;;33.00;99.90;;;;;;5050526;28;20189;-84
2022/06/23 11:29:34;;;;;;;2.72;2.35;;;32.90;99.90;;;;;;5049159;28;20662;-83
2022/06/23 11:32:22;;;;;;;1.27;1.15;;;32.80;99.90;;;;;;5050070;28;20189;-84
2022/06/23 11:34:53;;;;;;;1.25;1.15;;;32.90;99.90;;;;;;5050698;28;20181;-83
2022/06/23 11:37:37;;;;;;;2.88;1.40;;;33.10;99.90;;;;;;5057114;28;20664;-83
2022/06/23 11:40:38;;;;;;;2.05;1.27;;;33.00;99.90;;;;;;5052995;28;20625;-84
2022/06/23 11:43:28;;;;;;;1.80;1.17;;;33.00;99.90;;;;;;5058224;28;20756;-82
2022/06/23 11:46:20;;;;;;;1.92;1.80;;;33.10;99.90;;;;;;5059344;28;20186;-83
2022/06/23 11:49:07;;;;;;;3.00;2.42;;;33.10;99.90;;;;;;5055585;28;20238;-83
2022/06/23 11:51:55;;;;;;;1.40;1.30;;;32.60;99.90;;;;;;5064657;28;20235;-83
2022/06/23 11:54:48;;;;;;;2.03;1.60;;;33.00;99.90;;;;;;5047197;28;20224;-83
2022/06/23 11:57:50;;;;;;;1.33;1.23;;;33.20;99.90;;;;;;5036740;28;20202;-82
2022/06/23 12:00:19;;;;;;;1.17;1.17;;;33.20;99.90;;;;;;5037404;28;20188;-82
2022/06/23 12:03:22;;;;;;;3.90;1.70;;;33.50;99.90;;;;;;5037801;28;20178;-81
2022/06/23 12:06:02;;;;;;;2.03;1.92;;;33.30;99.90;;;;;;5035210;28;20213;-82
2022/06/23 12:08:56;;;;;;;1.40;1.30;;;33.00;99.90;;;;;;5042117;28;20368;-82
2022/06/23 12:11:23;;;;;;;1.25;1.15;;;33.00;99.90;;;;;;5043043;28;20521;-82
2022/06/23 12:13:49;;;;;;;1.60;1.50;;;33.30;99.90;;;;;;5037619;28;20186;-82
2022/06/23 12:16:15;;;;;;;1.75;1.35;;;33.60;99.90;;;;;;5035944;28;20224;-81
2022/06/23 12:19:03;;;;;;;2.17;1.70;;;33.50;99.90;;;;;;5036072;28;20209;-82
2022/06/23 12:21:35;;;;;;;2.13;1.73;;;33.40;99.90;;;;;;5036197;28;20267;-81
2022/06/23 12:24:07;;;;;;;1.63;1.52;;;33.50;99.90;;;;;;5036176;28;20249;-81
2022/06/23 12:27:14;;;;;;;1.88;1.77;;;33.70;99.90;;;;;;5043663;28;20214;-81
2022/06/23 12:30:15;;;;;;;1.25;1.15;;;33.70;99.90;;;;;;5042590;28;21147;-82
2022/06/23 12:33:06;;;;;;;1.50;1.40;;;33.90;99.90;;;;;;5035581;28;20194;-82
2022/06/23 12:35:54;;;;;;;1.98;1.40;;;33.90;99.90;;;;;;5038612;28;20185;-81
2022/06/23 12:38:31;;;;;;;2.33;1.50;;;34.00;99.90;;;;;;5038417;28;20211;-82
2022/06/23 12:41:14;;;;;;;2.20;2.00;;;34.10;99.90;;;;;;5038509;28;21214;-82
2022/06/23 12:44:14;;;;;;;1.92;1.73;;;34.10;99.90;;;;;;5035752;28;20205;-82
2022/06/23 12:47:04;;;;;;;1.73;1.63;;;34.10;99.90;;;;;;5043152;28;20272;-82
2022/06/23 12:50:02;;;;;;;2.42;1.73;;;33.90;99.90;;;;;;5038033;28;20243;-82
2022/06/23 12:53:16;;;;;;;1.80;1.40;;;34.00;99.90;;;;;;5035114;28;20182;-81
2022/06/23 12:56:08;;;;;;;1.60;1.30;;;33.70;99.90;;;;;;5051994;28;20356;-81
2022/06/23 12:58:44;;;;;;;1.75;1.65;;;33.90;99.90;;;;;;5058371;28;20212;-81
2022/06/23 13:01:14;;;;;;;1.60;1.40;;;34.00;99.90;;;;;;5037704;28;21157;-81
2022/06/23 13:04:13;;;;;;;1.35;1.25;;;34.10;99.90;;;;;;5035898;28;21104;-82
2022/06/23 13:06:53;;;;;;;1.65;1.55;;;34.00;99.90;;;;;;5035439;28;20182;-82
2022/06/23 13:09:19;;;;;;;1.70;1.48;;;33.90;99.90;;;;;;5037122;28;20629;-82
2022/06/23 13:12:22;;;;;;;1.85;1.45;;;33.90;99.90;;;;;;5036214;28;20214;-81
2022/06/23 13:15:01;;;;;;;1.88;1.77;;;34.10;99.90;;;;;;5035595;28;20303;-82
2022/06/23 13:17:56;;;;;;;1.40;1.20;;;34.10;99.90;;;;;;5037001;28;20875;-81
2022/06/23 13:20:42;;;;;;;3.40;2.08;;;34.00;99.90;;;;;;5035792;28;20186;-81
2022/06/23 13:23:15;;;;;;;2.25;2.08;;;34.10;99.90;;;;;;5034590;28;20292;-82
2022/06/23 13:25:49;;;;;;;1.52;1.02;;;34.00;99.90;;;;;;5035777;28;20178;-82
2022/06/23 13:28:37;;;;;;;3.55;1.52;;;34.10;99.90;;;;;;5042222;28;20548;-81
2022/06/23 13:31:10;;;;;;;2.20;1.88;;;34.20;99.90;;;;;;5040731;28;20180;-80
2022/06/23 13:33:57;;;;;;;1.65;1.55;;;34.20;99.90;;;;;;5034890;28;20191;-81
2022/06/23 13:37:00;;;;;;;2.70;1.58;;;34.10;99.90;;;;;;5055523;28;20182;-81
2022/06/23 13:39:34;;;;;;;1.50;1.30;;;34.20;99.90;;;;;;5033338;28;20202;-82
2022/06/23 13:42:09;;;;;;;2.28;2.17;;;34.30;99.90;;;;;;5036986;28;20178;-82
2022/06/23 13:44:58;;;;;;;2.92;1.55;;;34.30;99.90;;;;;;5036405;28;20205;-82
2022/06/23 13:47:33;;;;;;;0.90;0.90;;;34.30;99.90;;;;;;5040978;28;20198;-82
2022/06/23 13:50:28;;;;;;;1.80;1.70;;;34.20;99.90;;;;;;5034266;28;20255;-82
2022/06/23 13:53:02;;;;;;;1.77;1.05;;;34.30;99.90;;;;;;5043769;28;20256;-82
2022/06/23 13:55:39;;;;;;;0.80;0.80;;;34.50;99.90;;;;;;5040188;28;20173;-81
2022/06/23 13:58:04;;;;;;;0.85;0.68;;;34.60;99.90;;;;;;5037772;28;20296;-81
2022/06/23 14:00:52;;;;;;;1.38;1.27;;;34.50;99.90;;;;;;5038997;28;20281;-82
2022/06/23 14:03:33;;;;;;;1.08;1.00;;;34.60;99.90;;;;;;5037858;28;20237;-82
2022/06/23 14:06:06;;;;;;;3.35;1.75;;;34.70;99.90;;;;;;5036414;28;20273;-82
2022/06/23 14:08:44;;;;;;;0.90;0.90;;;33.60;99.90;;;;;;5037570;28;20257;-84